Time;durP1;ratioP1;P1;durP2;ratioP2;P2;SDS_P1;SDS_P2;PMS_P1;PMS_P2;Temp;Humidity;BMP_temperature;BMP_pressure;BME280_temperature;BME280_humidity;BME280_pressure;Samples;Min_cycle;Max_cycle;Signal;HPM_P1;HPM_P2
2023/10/17 00:00:28;;;;;;;3.40;1.90;;;9.50;99.90;;;;;;4166238;28;20266;-87
2023/10/17 00:02:28;;;;;;;10.13;2.40;;;9.50;99.90;;;;;;4164762;28;20223;-87
2023/10/17 00:04:32;;;;;;;4.57;2.17;;;9.60;99.90;;;;;;4165420;28;20172;-87
2023/10/17 00:06:33;;;;;;;5.80;2.27;;;9.60;99.90;;;;;;4165345;28;20192;-87
2023/10/17 00:08:34;;;;;;;5.23;1.70;;;9.60;99.90;;;;;;4165829;28;20176;-87
2023/10/17 00:10:40;;;;;;;6.43;2.53;;;9.50;99.90;;;;;;4165321;28;20226;-87
2023/10/17 00:12:44;;;;;;;6.50;2.67;;;9.50;99.90;;;;;;4182480;28;20179;-87
2023/10/17 00:14:45;;;;;;;6.70;2.10;;;9.40;99.90;;;;;;4182248;28;20199;-87
2023/10/17 00:16:46;;;;;;;3.90;1.80;;;9.50;99.90;;;;;;4181509;28;20571;-87
2023/10/17 00:18:47;;;;;;;5.60;1.63;;;9.50;99.90;;;;;;4164823;28;20168;-87
2023/10/17 00:20:50;;;;;;;6.00;2.10;;;9.50;99.90;;;;;;4180821;28;20660;-87
2023/10/17 00:22:53;;;;;;;6.20;2.17;;;9.50;99.90;;;;;;4164458;28;20164;-87
2023/10/17 00:25:09;;;;;;;5.60;1.60;;;9.50;99.90;;;;;;4165391;28;20184;-93
2023/10/17 00:27:10;;;;;;;8.17;1.83;;;9.40;99.90;;;;;;4164611;28;20199;-87
2023/10/17 00:29:12;;;;;;;6.67;2.23;;;9.30;99.90;;;;;;4164485;28;20173;-87
2023/10/17 00:31:13;;;;;;;4.47;2.10;;;9.30;99.90;;;;;;4148439;28;20532;-87
2023/10/17 00:33:20;;;;;;;6.67;1.83;;;9.30;99.90;;;;;;4165038;28;20195;-87
2023/10/17 00:35:25;;;;;;;9.40;3.10;;;9.30;99.90;;;;;;4148462;28;20251;-86
2023/10/17 00:37:30;;;;;;;4.53;2.07;;;9.30;99.90;;;;;;4148780;28;20200;-87
2023/10/17 00:39:32;;;;;;;3.07;1.70;;;9.40;99.90;;;;;;4164461;28;20172;-87
2023/10/17 00:41:47;;;;;;;8.80;2.50;;;9.30;99.90;;;;;;4164822;28;20176;-87
2023/10/17 00:43:48;;;;;;;3.50;1.63;;;9.20;99.90;;;;;;4148397;28;20184;-88
2023/10/17 00:45:49;;;;;;;3.00;2.17;;;9.30;99.90;;;;;;4148359;28;20311;-87
2023/10/17 00:47:50;;;;;;;4.50;2.17;;;9.40;99.90;;;;;;4148059;28;20175;-87
2023/10/17 00:49:51;;;;;;;5.87;2.33;;;9.30;99.90;;;;;;4182097;28;20207;-94
2023/10/17 00:51:55;;;;;;;8.30;2.53;;;9.30;99.90;;;;;;4164823;28;20619;-87
2023/10/17 00:54:00;;;;;;;5.57;2.10;;;9.30;99.90;;;;;;4164412;28;20176;-87
2023/10/17 00:56:01;;;;;;;5.50;2.60;;;9.30;99.90;;;;;;4164381;28;20684;-88
2023/10/17 00:58:03;;;;;;;4.13;2.43;;;9.30;99.90;;;;;;4164266;28;20231;-87
2023/10/17 01:00:23;;;;;;;5.60;2.13;;;9.40;99.90;;;;;;4164177;28;20179;-87
2023/10/17 01:02:29;;;;;;;6.73;2.27;;;9.40;99.90;;;;;;4180881;28;20179;-87
2023/10/17 01:04:30;;;;;;;5.07;2.50;;;9.40;99.90;;;;;;4164267;28;20233;-86
2023/10/17 01:06:36;;;;;;;5.10;2.33;;;9.40;99.90;;;;;;4164278;28;20247;-87
2023/10/17 01:08:44;;;;;;;5.13;2.53;;;9.30;99.90;;;;;;4164282;28;20178;-88
2023/10/17 01:10:45;;;;;;;6.10;2.10;;;9.30;99.90;;;;;;4163859;28;20179;-86
2023/10/17 01:13:04;;;;;;;7.97;2.27;;;9.40;99.90;;;;;;4164607;28;20219;-87
2023/10/17 01:15:05;;;;;;;8.37;3.30;;;9.30;99.90;;;;;;4147981;28;20180;-87
2023/10/17 01:17:14;;;;;;;3.87;2.30;;;9.30;99.90;;;;;;4165037;28;20220;-86
2023/10/17 01:19:19;;;;;;;5.73;3.03;;;9.30;99.90;;;;;;4167131;28;20539;-86
2023/10/17 01:21:20;;;;;;;4.10;1.93;;;9.20;99.90;;;;;;4167414;28;20188;-87
2023/10/17 01:23:23;;;;;;;4.93;2.63;;;9.20;99.90;;;;;;4167716;28;20160;-87
2023/10/17 01:25:25;;;;;;;5.70;2.30;;;9.20;99.90;;;;;;4167001;28;20171;-87
2023/10/17 01:27:26;;;;;;;5.87;2.40;;;9.20;99.90;;;;;;4167056;28;20203;-87
2023/10/17 01:29:27;;;;;;;7.23;2.87;;;9.10;99.90;;;;;;4167258;28;20644;-87
2023/10/17 01:31:30;;;;;;;6.33;2.53;;;9.20;99.90;;;;;;4183261;28;20172;-87
2023/10/17 01:33:31;;;;;;;6.37;2.53;;;9.20;99.90;;;;;;4183863;28;20259;-87
2023/10/17 01:35:32;;;;;;;4.40;2.47;;;9.20;99.90;;;;;;4167475;28;20176;-87
2023/10/17 01:37:36;;;;;;;5.63;2.80;;;9.10;99.90;;;;;;4183753;28;20579;-86
2023/10/17 01:39:37;;;;;;;6.90;3.50;;;9.00;99.90;;;;;;4183511;28;20182;-87
2023/10/17 01:41:38;;;;;;;7.63;3.23;;;9.00;99.90;;;;;;4150901;28;20227;-86
2023/10/17 01:43:48;;;;;;;4.70;2.43;;;9.00;99.90;;;;;;4167142;28;20172;-86
2023/10/17 01:45:54;;;;;;;7.90;2.77;;;9.10;99.90;;;;;;4184928;28;20162;-86
2023/10/17 01:47:55;;;;;;;7.40;2.70;;;9.20;99.90;;;;;;4183586;28;20206;-86
2023/10/17 01:49:57;;;;;;;4.43;2.43;;;9.10;99.90;;;;;;4183639;28;20558;-92
2023/10/17 01:51:58;;;;;;;6.33;3.53;;;9.10;99.90;;;;;;4167093;28;20187;-86
2023/10/17 01:53:58;;;;;;;8.87;3.07;;;9.20;99.90;;;;;;4150551;28;20192;-87
2023/10/17 01:56:06;;;;;;;8.77;2.87;;;9.20;99.90;;;;;;4166703;28;20243;-86
2023/10/17 01:58:15;;;;;;;8.07;3.07;;;9.20;99.90;;;;;;4150382;28;20192;-86
2023/10/17 02:02:37;;;;;;;4.83;3.00;;;9.10;99.90;;;;;;4200185;28;20175;-87
2023/10/17 02:04:38;;;;;;;7.00;2.80;;;9.10;99.90;;;;;;4150305;28;20188;-87
2023/10/17 02:06:39;;;;;;;6.30;3.23;;;9.10;99.90;;;;;;4150083;28;20197;-87
2023/10/17 02:08:44;;;;;;;5.83;3.10;;;9.10;99.90;;;;;;4183541;28;20176;-87
2023/10/17 02:10:47;;;;;;;5.80;2.87;;;9.20;99.90;;;;;;4183428;28;20202;-87
2023/10/17 02:12:48;;;;;;;8.90;3.70;;;9.10;99.90;;;;;;4150124;28;20669;-87
2023/10/17 02:14:49;;;;;;;6.73;2.60;;;9.10;99.90;;;;;;4150102;28;20219;-86
2023/10/17 02:16:50;;;;;;;7.90;2.93;;;9.10;99.90;;;;;;4183111;28;20294;-87
2023/10/17 02:18:51;;;;;;;5.63;3.30;;;9.10;99.90;;;;;;4150240;28;20169;-87
2023/10/17 02:20:52;;;;;;;6.50;3.50;;;9.20;99.90;;;;;;4166557;28;20228;-86
2023/10/17 02:22:53;;;;;;;7.03;3.00;;;9.30;99.90;;;;;;4183572;28;20171;-86
2023/10/17 02:24:56;;;;;;;8.47;3.27;;;9.20;99.90;;;;;;4150600;28;20275;-86
2023/10/17 02:27:00;;;;;;;9.97;3.57;;;9.20;99.90;;;;;;4150230;28;20185;-93
2023/10/17 02:29:10;;;;;;;7.50;3.87;;;9.20;99.90;;;;;;4199028;28;20174;-87
2023/10/17 02:31:13;;;;;;;8.63;3.93;;;9.20;99.90;;;;;;4150193;28;20180;-86
2023/10/17 02:33:17;;;;;;;13.03;3.50;;;9.20;99.90;;;;;;4166779;28;20234;-86
2023/10/17 02:35:28;;;;;;;8.87;3.03;;;9.30;99.90;;;;;;4166969;28;20177;-86
2023/10/17 02:37:29;;;;;;;14.60;4.53;;;9.20;99.90;;;;;;4166520;28;20218;-87
2023/10/17 02:39:31;;;;;;;8.47;4.50;;;9.20;99.90;;;;;;4150236;28;20179;-95
2023/10/17 02:41:32;;;;;;;7.70;3.70;;;9.20;99.90;;;;;;4166887;28;20172;-86
2023/10/17 02:43:37;;;;;;;7.70;3.63;;;9.40;99.90;;;;;;4149984;28;20173;-90
2023/10/17 02:45:41;;;;;;;10.20;3.80;;;9.30;99.90;;;;;;4182413;28;20179;-87
2023/10/17 02:47:43;;;;;;;6.50;3.87;;;9.40;99.90;;;;;;4165811;28;20192;-86
2023/10/17 02:49:46;;;;;;;16.30;5.00;;;9.30;99.90;;;;;;4165717;28;20187;-87
2023/10/17 02:51:47;;;;;;;20.43;4.83;;;9.30;99.90;;;;;;4165691;28;20164;-88
2023/10/17 02:53:56;;;;;;;8.90;3.93;;;9.10;99.90;;;;;;4165839;28;20207;-92
2023/10/17 02:55:57;;;;;;;8.77;3.27;;;9.10;99.90;;;;;;4149345;28;20208;-87
2023/10/17 02:57:58;;;;;;;10.20;4.47;;;9.10;99.90;;;;;;4150133;28;20172;-87
2023/10/17 03:00:19;;;;;;;8.13;4.23;;;9.00;99.90;;;;;;4166180;28;20391;-87
2023/10/17 03:02:25;;;;;;;15.40;5.03;;;9.00;99.90;;;;;;4165567;28;20664;-87
2023/10/17 03:04:25;;;;;;;11.20;5.53;;;9.00;99.90;;;;;;4165764;28;20580;-86
2023/10/17 03:06:27;;;;;;;7.90;3.80;;;9.10;99.90;;;;;;4149939;28;20888;-87
2023/10/17 03:08:30;;;;;;;10.10;5.00;;;9.10;99.90;;;;;;4149217;28;20177;-86
2023/10/17 03:10:37;;;;;;;12.33;5.37;;;9.10;99.90;;;;;;4149478;28;20181;-88
2023/10/17 03:12:53;;;;;;;8.70;4.57;;;9.20;99.90;;;;;;4165391;28;20248;-86
2023/10/17 03:15:38;;;;;;;9.70;3.83;;;9.10;99.90;;;;;;4165782;28;20172;-87
2023/10/17 03:17:17;;;;;;;12.73;4.37;;;9.10;99.90;;;;;;4155244;28;20702;-87
2023/10/17 03:19:26;;;;;;;13.20;5.17;;;9.00;99.90;;;;;;4165615;28;20180;-86
2023/10/17 03:21:33;;;;;;;15.23;5.00;;;8.90;99.90;;;;;;4165480;28;20659;-87
2023/10/17 03:23:34;;;;;;;14.90;5.57;;;8.90;99.90;;;;;;4182039;28;20642;-89
2023/10/17 03:25:39;;;;;;;14.33;5.63;;;8.80;99.90;;;;;;4149091;28;20168;-87
2023/10/17 03:27:48;;;;;;;12.27;4.80;;;8.80;99.90;;;;;;4165040;28;20224;-87
2023/10/17 03:29:50;;;;;;;12.33;4.77;;;8.70;99.90;;;;;;4148530;28;20172;-87
2023/10/17 03:31:58;;;;;;;15.23;5.30;;;8.70;99.90;;;;;;4181624;28;20218;-86
2023/10/17 03:34:00;;;;;;;9.97;4.97;;;8.80;99.90;;;;;;4149162;28;20231;-94
2023/10/17 03:38:03;;;;;;;10.63;4.83;;;8.90;99.90;;;;;;4165326;28;20167;-86
2023/10/17 03:42:31;;;;;;;13.30;5.23;;;8.90;99.90;;;;;;4165211;28;20172;-87
2023/10/17 03:44:38;;;;;;;11.10;4.60;;;8.90;99.90;;;;;;4181766;28;20179;-86
2023/10/17 03:46:39;;;;;;;11.97;4.97;;;8.80;99.90;;;;;;4149284;28;20260;-87
2023/10/17 03:48:49;;;;;;;10.70;5.00;;;8.80;99.90;;;;;;4149248;28;20177;-87
2023/10/17 03:51:08;;;;;;;13.77;6.07;;;8.80;99.90;;;;;;4181546;28;20172;-87
2023/10/17 03:53:18;;;;;;;13.87;4.23;;;8.80;99.90;;;;;;4165529;28;20180;-89
2023/10/17 03:55:21;;;;;;;15.47;5.10;;;8.80;99.90;;;;;;4165326;28;20168;-88
2023/10/17 03:57:25;;;;;;;10.37;5.17;;;8.90;99.90;;;;;;4165282;28;20220;-86
2023/10/17 03:59:31;;;;;;;14.23;5.53;;;9.00;99.90;;;;;;4149415;28;20232;-86
2023/10/17 04:01:32;;;;;;;14.17;5.57;;;9.00;99.90;;;;;;4165188;28;20267;-87
2023/10/17 04:03:34;;;;;;;13.03;5.23;;;8.90;99.90;;;;;;4164830;28;20243;-87
2023/10/17 04:05:35;;;;;;;11.00;4.60;;;8.90;99.90;;;;;;4148665;28;20202;-87
2023/10/17 04:07:36;;;;;;;8.53;4.47;;;8.90;99.90;;;;;;4148723;28;20223;-87
2023/10/17 04:11:58;;;;;;;16.03;5.43;;;8.80;99.90;;;;;;4181418;28;20234;-86
2023/10/17 04:14:01;;;;;;;18.10;4.83;;;8.90;99.90;;;;;;4181700;28;20175;-87
2023/10/17 04:16:09;;;;;;;9.37;5.10;;;8.90;99.90;;;;;;4164796;28;20196;-87
2023/10/17 04:18:11;;;;;;;10.60;4.23;;;8.90;99.90;;;;;;4165170;28;20176;-87
2023/10/17 04:20:12;;;;;;;12.17;4.53;;;8.90;99.90;;;;;;4181679;28;20202;-94
2023/10/17 04:22:19;;;;;;;15.20;5.13;;;8.90;99.90;;;;;;4165086;28;20183;-87
2023/10/17 04:24:53;;;;;;;15.60;4.20;;;8.80;99.90;;;;;;4181868;28;20226;-87
2023/10/17 04:26:47;;;;;;;10.93;4.23;;;8.80;99.90;;;;;;4177398;28;20206;-94
2023/10/17 04:28:51;;;;;;;11.23;4.57;;;8.90;99.90;;;;;;4164549;28;20176;-87
2023/10/17 04:30:56;;;;;;;9.03;4.47;;;8.90;99.90;;;;;;4164693;28;20172;-87
2023/10/17 04:33:09;;;;;;;14.23;4.33;;;9.00;99.90;;;;;;4148429;28;20180;-87
2023/10/17 04:35:10;;;;;;;10.87;4.40;;;9.00;99.90;;;;;;4148807;28;20173;-87
2023/10/17 04:37:16;;;;;;;8.43;3.30;;;8.90;99.90;;;;;;4164683;28;20242;-95
2023/10/17 04:41:40;;;;;;;10.73;3.47;;;8.90;99.90;;;;;;4164265;28;20183;-87
2023/10/17 04:43:49;;;;;;;5.30;3.50;;;8.90;99.90;;;;;;4164656;28;20265;-86
2023/10/17 04:45:55;;;;;;;7.23;3.97;;;9.00;99.90;;;;;;4164625;28;20186;-86
2023/10/17 04:48:11;;;;;;;7.40;3.73;;;9.00;99.90;;;;;;4148645;28;20172;-87
2023/10/17 04:50:12;;;;;;;8.83;4.03;;;8.90;99.90;;;;;;4164551;28;20192;-86
2023/10/17 04:52:19;;;;;;;7.80;3.87;;;8.90;99.90;;;;;;4149950;28;20169;-86
2023/10/17 04:56:52;;;;;;;6.43;2.57;;;8.90;99.90;;;;;;4168063;28;20224;-86
2023/10/17 04:58:56;;;;;;;8.67;3.23;;;8.90;99.90;;;;;;4183954;28;20177;-86
2023/10/17 05:03:13;;;;;;;7.17;2.90;;;8.80;99.90;;;;;;4167771;28;20164;-87
2023/10/17 05:05:39;;;;;;;8.40;3.03;;;8.80;99.90;;;;;;4167543;28;20176;-86
2023/10/17 06:17:24;;;;;;;6.40;2.37;;;8.70;99.90;;;;;;4183241;28;20317;-88
2023/10/17 06:19:25;;;;;;;6.97;2.63;;;8.80;99.90;;;;;;4183827;28;20271;-88
2023/10/17 06:21:35;;;;;;;3.57;2.07;;;8.90;99.90;;;;;;4150800;28;20220;-91
2023/10/17 06:30:28;;;;;;;4.77;2.47;;;9.10;99.90;;;;;;4185186;28;20183;-88
2023/10/17 06:34:38;;;;;;;4.03;1.80;;;9.20;99.90;;;;;;4185066;28;20201;-88
2023/10/17 06:36:40;;;;;;;4.00;2.30;;;9.20;99.90;;;;;;4167944;28;20216;-86
2023/10/17 06:38:47;;;;;;;2.93;2.07;;;9.10;99.90;;;;;;4166785;28;20165;-88
2023/10/17 06:40:53;;;;;;;4.23;1.93;;;8.90;99.90;;;;;;4167757;28;20182;-87
2023/10/17 06:42:59;;;;;;;4.80;1.90;;;8.90;99.90;;;;;;4151306;28;20165;-87
2023/10/17 06:45:18;;;;;;;4.17;1.87;;;8.80;99.90;;;;;;4150737;28;20192;-91
2023/10/17 06:47:30;;;;;;;2.70;1.60;;;8.90;99.90;;;;;;4167518;28;20211;-87
2023/10/17 06:51:36;;;;;;;3.03;1.93;;;8.90;99.90;;;;;;4166276;28;20555;-89
2023/10/17 06:53:37;;;;;;;3.23;2.03;;;8.80;99.90;;;;;;4166806;28;20263;-88
2023/10/17 06:55:42;;;;;;;9.13;2.57;;;8.80;99.90;;;;;;4166776;28;20168;-88
2023/10/17 06:57:43;;;;;;;30.50;2.30;;;8.70;99.90;;;;;;4149775;28;20696;-87
2023/10/17 06:59:45;;;;;;;4.17;1.83;;;8.70;99.90;;;;;;4166671;28;20172;-88
2023/10/17 07:01:48;;;;;;;5.33;1.97;;;8.80;99.90;;;;;;4149987;28;20242;-87
2023/10/17 07:03:54;;;;;;;4.83;2.30;;;8.70;99.90;;;;;;4151506;28;20280;-88
2023/10/17 07:06:24;;;;;;;4.03;2.10;;;8.80;99.90;;;;;;4200740;28;20178;-87
2023/10/17 07:08:23;;;;;;;9.70;1.83;;;8.90;99.90;;;;;;4166909;28;20180;-87
2023/10/17 07:12:24;;;;;;;5.43;2.20;;;8.90;99.90;;;;;;4183111;28;20183;-87
2023/10/17 07:14:25;;;;;;;2.90;1.87;;;8.90;99.90;;;;;;4165570;28;20195;-87
2023/10/17 07:16:32;;;;;;;4.27;2.07;;;8.90;99.90;;;;;;4151073;28;20632;-95
2023/10/17 07:18:51;;;;;;;2.97;1.37;;;8.90;99.90;;;;;;4184163;28;20200;-87
2023/10/17 07:23:15;;;;;;;6.93;2.57;;;8.90;99.90;;;;;;4166452;28;20234;-91
2023/10/17 07:25:19;;;;;;;8.63;1.80;;;9.00;99.90;;;;;;4149887;28;20169;-87
2023/10/17 07:27:27;;;;;;;4.10;1.60;;;9.00;99.90;;;;;;4166016;28;20192;-87
2023/10/17 07:29:33;;;;;;;2.53;1.43;;;9.10;99.90;;;;;;4165923;28;20172;-88
2023/10/17 07:31:34;;;;;;;5.63;1.33;;;9.20;99.90;;;;;;4183077;28;20180;-88
2023/10/17 07:33:35;;;;;;;1.37;1.10;;;9.20;99.90;;;;;;4150028;28;20312;-87
2023/10/17 07:35:36;;;;;;;2.87;1.20;;;9.10;99.90;;;;;;4150900;28;20272;-88
2023/10/17 07:37:56;;;;;;;3.33;1.50;;;9.00;99.90;;;;;;4149177;28;20247;-88
2023/10/17 07:42:23;;;;;;;6.20;1.30;;;9.20;99.90;;;;;;4199580;28;20182;-95
2023/10/17 07:44:29;;;;;;;2.03;1.37;;;9.30;99.90;;;;;;4183409;28;20297;-88
2023/10/17 07:46:34;;;;;;;3.17;1.37;;;9.30;99.90;;;;;;4167068;28;20707;-87
2023/10/17 07:48:35;;;;;;;4.27;1.43;;;9.50;99.90;;;;;;4183355;28;20250;-88
2023/10/17 07:50:40;;;;;;;3.37;1.67;;;9.40;99.90;;;;;;4166221;28;20232;-88
2023/10/17 07:52:43;;;;;;;2.87;1.43;;;9.40;99.90;;;;;;4165631;28;20175;-88
2023/10/17 07:57:36;;;;;;;3.60;1.30;;;9.30;99.90;;;;;;4132377;28;20320;-87
2023/10/17 07:59:37;;;;;;;4.10;1.10;;;9.20;99.90;;;;;;4147299;28;20200;-87
2023/10/17 08:01:42;;;;;;;2.93;1.83;;;9.30;99.90;;;;;;4168101;28;20569;-96
2023/10/17 08:08:12;;;;;;;4.30;1.87;;;9.30;99.90;;;;;;4181953;28;20674;-93
2023/10/17 08:10:26;;;;;;;6.53;1.47;;;9.40;99.90;;;;;;4182008;28;20171;-86
2023/10/17 08:12:33;;;;;;;2.53;1.53;;;9.40;99.90;;;;;;4165694;28;20192;-87
2023/10/17 08:14:41;;;;;;;5.27;1.37;;;9.20;99.90;;;;;;4149797;28;20313;-87
2023/10/17 08:16:42;;;;;;;3.80;1.40;;;9.40;99.90;;;;;;4150516;28;20215;-87
2023/10/17 08:18:43;;;;;;;2.77;1.17;;;9.40;99.90;;;;;;4182252;28;20416;-87
2023/10/17 08:20:45;;;;;;;4.90;1.63;;;9.50;99.90;;;;;;4149308;28;20677;-87
2023/10/17 08:22:55;;;;;;;4.57;1.43;;;9.60;99.90;;;;;;4165272;28;20173;-87
2023/10/17 08:24:59;;;;;;;1.90;1.23;;;9.60;99.90;;;;;;4165620;28;20624;-87
2023/10/17 08:27:13;;;;;;;8.60;1.20;;;9.50;99.90;;;;;;4147746;28;20550;-87
2023/10/17 08:29:14;;;;;;;5.23;1.00;;;9.50;99.90;;;;;;4149809;28;20177;-87
2023/10/17 08:33:42;;;;;;;2.63;1.40;;;9.70;99.90;;;;;;4165288;28;20638;-88
2023/10/17 08:35:51;;;;;;;3.33;1.90;;;9.70;99.90;;;;;;4148992;28;20687;-87
2023/10/17 08:37:52;;;;;;;6.73;1.77;;;9.70;99.90;;;;;;4166905;28;20255;-94
2023/10/17 08:39:53;;;;;;;4.73;1.40;;;9.70;99.90;;;;;;4164797;28;20310;-87
2023/10/17 08:42:05;;;;;;;2.10;1.30;;;9.50;99.90;;;;;;4165147;28;20276;-86
2023/10/17 08:44:05;;;;;;;2.97;1.27;;;9.50;99.90;;;;;;4149496;28;20560;-88
2023/10/17 08:46:10;;;;;;;3.23;1.40;;;9.60;99.90;;;;;;4149509;28;20272;-87
2023/10/17 08:48:12;;;;;;;3.53;1.33;;;9.80;99.90;;;;;;4149069;28;20173;-88
2023/10/17 08:50:15;;;;;;;2.30;1.60;;;10.30;99.90;;;;;;4149126;28;20669;-95
2023/10/17 08:52:24;;;;;;;2.63;1.10;;;11.00;99.90;;;;;;4148652;28;20169;-88
2023/10/17 08:54:28;;;;;;;4.57;1.85;;;11.70;99.90;;;;;;4148736;28;20300;-87
2023/10/17 08:56:33;;;;;;;1.65;1.20;;;12.20;99.90;;;;;;4149096;28;20244;-88
2023/10/17 08:58:36;;;;;;;1.92;1.05;;;12.20;99.90;;;;;;4164656;28;20590;-88
2023/10/17 09:03:00;;;;;;;2.67;1.20;;;13.00;99.90;;;;;;4165454;28;20176;-86
2023/10/17 09:05:18;;;;;;;4.00;1.52;;;13.10;99.90;;;;;;4167004;28;20184;-87
2023/10/17 09:07:31;;;;;;;1.67;0.90;;;12.70;99.90;;;;;;4149295;28;20739;-86
2023/10/17 09:09:33;;;;;;;3.10;1.00;;;12.60;99.90;;;;;;4149681;28;20238;-87
2023/10/17 09:11:40;;;;;;;2.88;1.42;;;12.70;99.90;;;;;;4164857;28;20198;-95
2023/10/17 09:15:57;;;;;;;1.13;0.70;;;12.90;99.90;;;;;;4181673;28;20175;-87
2023/10/17 09:18:08;;;;;;;1.83;1.08;;;13.20;99.90;;;;;;4181197;28;20195;-87
2023/10/17 09:20:11;;;;;;;2.08;1.20;;;13.20;99.90;;;;;;4181923;28;20183;-95
2023/10/17 09:22:16;;;;;;;2.92;1.40;;;13.20;99.90;;;;;;4181342;28;20226;-87
2023/10/17 09:24:36;;;;;;;2.65;1.10;;;13.40;99.90;;;;;;4148793;28;20169;-88
2023/10/17 09:26:46;;;;;;;1.90;1.35;;;13.20;99.90;;;;;;4149196;28;20577;-88
2023/10/17 09:28:48;;;;;;;2.75;1.05;;;13.30;99.90;;;;;;4165685;28;20176;-96
2023/10/17 09:30:58;;;;;;;2.55;1.40;;;12.90;99.90;;;;;;4148758;28;20223;-88
2023/10/17 09:32:59;;;;;;;1.05;0.90;;;12.60;99.90;;;;;;4164825;28;20179;-87
2023/10/17 09:35:18;;;;;;;3.15;1.50;;;12.50;99.90;;;;;;4164954;28;20232;-87
2023/10/17 09:37:19;;;;;;;1.70;0.98;;;12.40;99.90;;;;;;4182262;28;20576;-87
2023/10/17 09:39:27;;;;;;;2.65;1.27;;;12.10;99.90;;;;;;4168169;28;20311;-86
2023/10/17 09:41:28;;;;;;;8.43;1.58;;;12.20;99.90;;;;;;4152023;28;20172;-86
2023/10/17 09:43:29;;;;;;;3.95;1.80;;;12.00;99.90;;;;;;4151563;28;20177;-87
2023/10/17 09:45:33;;;;;;;1.63;0.98;;;11.80;99.90;;;;;;4200865;28;20189;-86
2023/10/17 09:47:41;;;;;;;1.85;1.10;;;11.70;99.90;;;;;;4152450;28;20645;-87
2023/10/17 09:49:48;;;;;;;2.35;1.02;;;11.60;99.90;;;;;;4184938;28;20175;-87
2023/10/17 09:51:52;;;;;;;3.58;1.23;;;11.50;99.90;;;;;;4185406;28;20175;-86
2023/10/17 09:53:54;;;;;;;1.80;1.23;;;11.50;99.90;;;;;;4186860;28;20163;-87
2023/10/17 09:55:58;;;;;;;1.35;1.10;;;11.40;99.90;;;;;;4184703;28;20203;-88
2023/10/17 09:58:11;;;;;;;2.08;1.13;;;11.70;99.90;;;;;;4202197;28;20183;-87
2023/10/17 10:00:46;;;;;;;3.88;1.10;;;11.80;99.90;;;;;;4187397;28;20263;-87
2023/10/17 10:02:49;;;;;;;5.43;1.23;;;11.90;99.90;;;;;;4185464;28;20732;-94
2023/10/17 10:04:49;;;;;;;7.35;1.63;;;12.00;99.90;;;;;;4185442;28;20178;-93
2023/10/17 10:06:53;;;;;;;1.50;1.08;;;11.90;99.90;;;;;;4170911;28;20223;-93
2023/10/17 10:08:55;;;;;;;1.63;1.00;;;12.00;99.90;;;;;;4172866;28;20176;-93
2023/10/17 10:11:01;;;;;;;2.78;1.30;;;11.90;99.90;;;;;;4170827;28;20176;-93
2023/10/17 10:13:06;;;;;;;1.55;1.00;;;12.10;99.90;;;;;;4169547;28;20198;-88
2023/10/17 10:15:07;;;;;;;2.45;1.05;;;12.00;99.90;;;;;;4168996;28;20179;-86
2023/10/17 10:17:09;;;;;;;2.10;1.02;;;12.10;99.90;;;;;;4167832;28;20588;-95
2023/10/17 10:19:10;;;;;;;1.60;0.93;;;12.20;99.90;;;;;;4152013;28;20211;-87
2023/10/17 10:21:12;;;;;;;2.75;1.27;;;12.30;99.90;;;;;;4135770;28;20657;-88
2023/10/17 10:23:14;;;;;;;2.33;0.85;;;12.50;99.90;;;;;;4152857;28;20220;-87
2023/10/17 10:25:15;;;;;;;0.95;0.75;;;12.50;99.90;;;;;;4184666;28;20168;-87
2023/10/17 10:27:19;;;;;;;1.70;0.95;;;12.40;99.90;;;;;;4167164;28;20560;-88
2023/10/17 10:29:23;;;;;;;2.45;1.10;;;12.30;99.90;;;;;;4151993;28;20169;-87
2023/10/17 10:31:26;;;;;;;4.53;0.95;;;12.40;99.90;;;;;;4201235;28;20183;-87
2023/10/17 10:33:30;;;;;;;1.45;0.82;;;12.40;99.90;;;;;;4184259;28;20222;-87
2023/10/17 10:35:32;;;;;;;4.10;1.05;;;12.40;99.90;;;;;;4169129;28;20351;-87
2023/10/17 10:37:49;;;;;;;1.95;0.70;;;12.50;99.90;;;;;;4167351;28;20215;-87
2023/10/17 10:40:11;;;;;;;2.47;1.13;;;12.70;99.90;;;;;;4167517;28;20579;-88
2023/10/17 10:42:12;;;;;;;2.38;1.00;;;12.90;99.90;;;;;;4166717;28;20172;-88
2023/10/17 10:44:14;;;;;;;4.20;1.10;;;13.00;99.90;;;;;;4183147;28;20314;-88
2023/10/17 10:46:18;;;;;;;3.03;1.35;;;12.90;99.90;;;;;;4183605;28;20196;-87
2023/10/17 10:48:21;;;;;;;5.80;1.30;;;12.90;99.90;;;;;;4167209;28;20176;-87
2023/10/17 10:50:22;;;;;;;6.25;1.15;;;13.00;99.90;;;;;;4149673;28;20165;-88
2023/10/17 10:52:24;;;;;;;5.18;1.33;;;12.90;99.90;;;;;;4166779;28;20199;-87
2023/10/17 10:54:45;;;;;;;3.13;1.20;;;12.90;99.90;;;;;;4168272;28;20230;-87
2023/10/17 10:56:51;;;;;;;1.95;0.95;;;13.00;99.90;;;;;;4167935;28;20218;-96
2023/10/17 10:58:57;;;;;;;1.80;0.80;;;12.90;99.90;;;;;;4151244;28;20173;-88
2023/10/17 11:01:01;;;;;;;2.40;0.85;;;13.00;99.90;;;;;;4152266;28;20243;-96
2023/10/17 11:03:05;;;;;;;1.60;0.98;;;13.10;99.90;;;;;;4152480;28;20169;-91
2023/10/17 11:05:10;;;;;;;3.97;1.75;;;13.00;99.90;;;;;;4185283;28;20678;-88
2023/10/17 11:07:21;;;;;;;2.92;1.25;;;12.90;99.90;;;;;;4183179;28;20700;-87
2023/10/17 11:09:24;;;;;;;2.13;1.10;;;12.90;99.90;;;;;;4200425;28;20178;-86
2023/10/17 11:11:25;;;;;;;2.75;0.65;;;12.80;99.90;;;;;;4151766;28;20168;-87
2023/10/17 11:13:36;;;;;;;1.98;1.23;;;12.80;99.90;;;;;;4167912;28;20255;-86
2023/10/17 11:15:39;;;;;;;1.25;0.80;;;12.80;99.90;;;;;;4151139;28;20642;-87
2023/10/17 11:17:43;;;;;;;1.90;0.60;;;12.80;99.90;;;;;;4183044;28;20215;-87
2023/10/17 11:19:45;;;;;;;0.95;0.65;;;12.80;99.90;;;;;;4149866;28;20169;-88
2023/10/17 11:21:55;;;;;;;2.05;0.65;;;12.90;99.90;;;;;;4151174;28;20308;-87
2023/10/17 11:24:00;;;;;;;2.75;0.95;;;13.00;99.90;;;;;;4182407;28;20162;-88
2023/10/17 11:26:03;;;;;;;2.22;1.25;;;13.00;99.90;;;;;;4152284;28;20251;-91
2023/10/17 11:28:07;;;;;;;1.75;0.93;;;13.00;99.90;;;;;;4153121;28;20173;-88
2023/10/17 11:30:10;;;;;;;4.05;1.40;;;13.00;99.90;;;;;;4183460;28;20699;-87
2023/10/17 11:32:12;;;;;;;2.05;0.85;;;13.10;99.90;;;;;;4168702;28;20223;-88
2023/10/17 11:34:16;;;;;;;3.55;0.77;;;13.30;99.90;;;;;;4168610;28;20180;-87
2023/10/17 11:36:23;;;;;;;1.55;0.90;;;13.50;99.90;;;;;;4185560;28;20199;-96
2023/10/17 11:38:40;;;;;;;2.42;0.90;;;13.80;99.90;;;;;;4166317;28;20734;-86
2023/10/17 11:40:46;;;;;;;1.55;0.70;;;13.80;99.90;;;;;;4168684;28;20200;-90
2023/10/17 11:42:49;;;;;;;1.30;0.77;;;13.70;99.90;;;;;;4151672;28;20245;-88
2023/10/17 11:44:53;;;;;;;1.08;0.60;;;13.60;99.90;;;;;;4150647;28;20241;-87
2023/10/17 11:47:03;;;;;;;1.85;0.95;;;13.80;99.90;;;;;;4166651;28;20291;-88
2023/10/17 11:49:33;;;;;;;0.60;0.45;;;13.70;99.90;;;;;;4150502;28;20561;-96
2023/10/17 11:51:33;;;;;;;1.02;0.55;;;13.70;99.90;;;;;;4200995;28;20608;-88
2023/10/17 11:53:35;;;;;;;3.30;0.88;;;13.70;99.90;;;;;;4150596;28;20161;-87
2023/10/17 11:55:48;;;;;;;1.25;0.60;;;13.80;99.90;;;;;;4167367;28;20176;-95
2023/10/17 11:57:53;;;;;;;1.08;0.60;;;13.70;99.90;;;;;;4168042;28;20195;-87
2023/10/17 12:02:18;;;;;;;1.90;0.88;;;13.80;99.90;;;;;;4184174;28;20176;-88
2023/10/17 12:04:20;;;;;;;4.05;0.70;;;13.80;99.90;;;;;;4152656;28;20243;-96
2023/10/17 12:06:23;;;;;;;0.85;0.45;;;13.90;99.90;;;;;;4153610;28;20185;-94
2023/10/17 12:08:33;;;;;;;9.20;0.90;;;13.90;99.90;;;;;;4183684;28;20272;-87
2023/10/17 12:10:36;;;;;;;0.70;0.63;;;13.80;99.90;;;;;;4153014;28;20169;-88
2023/10/17 12:12:39;;;;;;;1.88;0.70;;;13.80;99.90;;;;;;4150717;28;20177;-95
2023/10/17 12:14:39;;;;;;;2.75;0.68;;;13.70;99.90;;;;;;4166956;28;20183;-89
2023/10/17 12:16:43;;;;;;;1.05;0.55;;;13.80;99.90;;;;;;4200223;28;20242;-89
2023/10/17 12:18:45;;;;;;;2.05;0.70;;;13.90;99.90;;;;;;4150060;28;20209;-88
2023/10/17 12:20:49;;;;;;;1.40;0.50;;;14.00;99.90;;;;;;4167166;28;20218;-88
2023/10/17 12:22:50;;;;;;;1.05;0.57;;;14.10;99.90;;;;;;4149752;28;20165;-88
2023/10/17 12:24:50;;;;;;;1.17;0.65;;;14.20;99.90;;;;;;4202330;28;20179;-92
2023/10/17 12:26:51;;;;;;;0.90;0.60;;;14.10;99.90;;;;;;4151373;28;20212;-88
2023/10/17 12:28:54;;;;;;;1.73;0.63;;;14.20;99.90;;;;;;4166461;28;20176;-88
2023/10/17 12:30:55;;;;;;;5.47;0.90;;;14.00;99.90;;;;;;4168473;28;20169;-88
2023/10/17 12:32:56;;;;;;;1.65;0.52;;;14.20;99.90;;;;;;4167653;28;20175;-89
2023/10/17 12:34:57;;;;;;;1.48;0.52;;;14.30;99.90;;;;;;4152346;28;20165;-88
2023/10/17 12:37:03;;;;;;;1.00;0.50;;;14.30;99.90;;;;;;4169624;28;20211;-87
2023/10/17 12:39:08;;;;;;;2.47;0.60;;;14.20;99.90;;;;;;4165648;28;20176;-88
2023/10/17 12:41:09;;;;;;;2.22;0.77;;;14.10;99.90;;;;;;4166004;28;20662;-88
2023/10/17 12:43:16;;;;;;;1.75;0.50;;;14.20;99.90;;;;;;4165922;28;20164;-87
2023/10/17 12:45:19;;;;;;;0.70;0.50;;;14.10;99.90;;;;;;4166186;28;20271;-87
2023/10/17 12:47:20;;;;;;;1.35;0.40;;;14.00;99.90;;;;;;4168945;28;20188;-87
2023/10/17 12:49:22;;;;;;;0.90;0.60;;;14.00;99.90;;;;;;4185443;28;20184;-89
2023/10/17 12:51:23;;;;;;;0.80;0.55;;;14.10;99.90;;;;;;4153726;28;20275;-95
2023/10/17 12:53:24;;;;;;;3.50;0.80;;;14.10;99.90;;;;;;4151683;28;20664;-88
2023/10/17 12:55:25;;;;;;;8.15;0.93;;;14.10;99.90;;;;;;4152402;28;20161;-88